• Join FlightAware (Why Join?)
  • Login
  • US Flag 
12:38PM EST


 

Airport Tracker/Info


-or-


 

Live Flight TrackerFlight Track Log ✈ THY2113 ✈ 16-May-2012 ✈ LTAC / ESB - LTBA / IST

Flight Track Log - Related Links

Times and Time Zones

All times are in EDT time to prevent confusion due to time zone crossing. See the THY2113 flight status page for this flight to view local times or setup timezone preferences in your user account.

Time Position Orientation Groundspeed Altitude Reporting Facility
EDT Latitude Longitude Course Direction KTS MPH feet Rate Location/Type
12:59AM 40.5718 30.9186 285° West  Level Estimated
01:00AM 40.5915 30.8215 285° West  Level Estimated
01:01AM 40.6111 30.7244 285° West  Level Estimated
01:02AM 40.6307 30.6272 285° West  Level Estimated
01:03AM 40.6501 30.5299 285° West  Level Estimated
01:04AM 40.6695 30.4326 285° West  Level Estimated
01:05AM 40.6888 30.3352 285° West  Level Estimated
01:06AM 40.7080 30.2378 285° West  Level Estimated
01:07AM 40.7271 30.1403 284° West  Level Estimated
01:08AM 40.7462 30.0427 284° West  Level Estimated
01:09AM 40.7651 29.9452 284° West  Level Estimated
01:10AM 40.7840 29.8475 284° West  Level Estimated
01:11AM 40.8028 29.7498 284° West  Level Estimated
01:12AM 40.8215 29.6520 284° West  Level Estimated
01:13AM 40.8402 29.5542 284° West  Level Estimated
01:14AM 40.8587 29.4563 284° West  Level Estimated
01:15AM 40.8772 29.3584 284° West  Level Estimated
01:16AM 40.8956 29.2604 284° West  Level Estimated
01:17AM 40.9139 29.1624 284° West  Level Estimated
01:18AM 40.9321 29.0643 284° West  Level Estimated
01:19AM 40.9503 28.9662 284° West  Level Estimated
01:20AM 40.9683 28.8680 284° West  Level Estimated
01:21AM 40.9863 28.7697 104° East  Level Estimated
01:22AM 40.9683 28.8680 284° West  Level Estimated
01:23AM 40.9863 28.7697 104° East  Level Estimated
01:24AM 40.9683 28.8680 284° West  Level Estimated
01:25AM 40.9863 28.7697 104° East  Level Estimated
01:26AM 40.9683 28.8680 284° West  Level Estimated
01:27AM 40.9863 28.7697 104° East  Level Estimated
01:28AM 40.9683 28.8680 284° West  Level Estimated
01:29AM 40.9863 28.7697 104° East  Level Estimated
01:30AM 40.9683 28.8680 284° West  Level Estimated
01:31AM 40.9863 28.7697 104° East  Level Estimated
01:32AM 40.9683 28.8680 284° West  Level Estimated
01:33AM 40.9863 28.7697 284° West  Level Estimated